KTYS/TYS METAR and TAF weather

Enter ICAO airport designator
Station Type Date Time Source
KTYS METAR 2022/11/26 07:53 UTC NOAA

KTYS 260753Z 04006KT 10SM CLR 07/05 A3017 RMK AO2 SLP214 T00670050


Station Type Date Time Source
KTYS Decoded METAR 2022/11/26 07:53 UTC NOAA

MCGHEE TYSON AIRPORT, TN, United States (KTYS) 35-49N 083-59W 302M
Nov 26, 2022 - 02:53 AM EST / 2022.11.26 0753 UTC
Wind: from the NE (040 degrees) at 7 MPH (6 KT):0
Visibility: 10 mile(s):0
Sky conditions: clear
Temperature: 44.1 F (6.7 C)
Dew Point: 41.0 F (5.0 C)
Relative Humidity: 88%
Pressure (altimeter): 30.17 in. Hg (1021 hPa)
ob: KTYS 260753Z 04006KT 10SM CLR 07/05 A3017 RMK AO2 SLP214 T00670050
cycle: 8

Station Type Date Time Source
KTYS TAF 2022/11/26 06:24 UTC NOAA

TAF KTYS 260522Z 2606/2706 04004KT P6SM FEW250
FM261500 04005KT P6SM BKN250
FM270000 05004KT P6SM BKN050

Example: see airport list